NCAR-RAP Real-Time Weather Data

Output produced by METARs form (23 June 2018  19:39 UTC)
found at http://weather.rap.ucar.edu/surface/
 
ROAH 231930Z 20012KT 9999 FEW010 28/26 Q1010 RMK 1CU010 A2983
ROAH 231900Z 20010KT 9999 FEW010 28/26 Q1010 RMK 1CU010 A2983
ROAH 231830Z 20010KT 9999 FEW010 SCT/// 28/26 Q1010
ROAH 231800Z 20011KT 9999 FEW010 SCT/// 28/26 Q1010
ROAH 231730Z 20011KT 9999 FEW010 SCT/// 28/26 Q1010
ROAH 231700Z 20011KT 9999 FEW008 SCT/// 28/26 Q1010
ROAH 231630Z 19010KT 9999 FEW005 SCT/// 28/26 Q1010 RMK 1ST005 A2985
ROAH 231600Z 21012KT 9999 FEW015 SCT/// 28/26 Q1011
ROAH 231530Z 20010KT 9999 FEW015 SCT/// 28/26 Q1011
ROAH 231500Z 20011KT 9999 FEW015 SCT/// 28/26 Q1011
ROAH 231430Z 21010KT 9999 FEW015 SCT/// 28/26 Q1012
ROAH 231400Z 21012KT 9999 FEW015 28/26 Q1012 RMK 1CU015 A2989
ROAH 231330Z 20013KT 9999 FEW020 FEW025CB 28/26 Q1011 RMK 1CU020 1CB025 A2987 LIGHTNING NW
ROAH 231300Z 21015KT 9999 FEW020 FEW025CB 28/26 Q1011 RMK 1CU020 1CB025 A2987 LIGHTNING W
ROAH 231230Z 20014KT 9999 FEW020 FEW025CB 29/26 Q1011 RMK 1CU020 1CB025 A2986 LIGHTNING N
ROAH 231200Z 20012KT 9999 FEW020 29/26 Q1011 RMK 1CU020 A2985
ROAH 231130Z 21014KT 9999 FEW020 29/26 Q1010 RMK 1CU020 A2984
ROAH 231100Z 20013KT 9999 FEW020 29/26 Q1010 RMK 1CU020 A2983
ROAH 231030Z 21014KT 9999 FEW020 29/25 Q1010 RMK 1CU020 A2982
ROAH 231000Z 21012KT 9999 FEW020 29/26 Q1009 RMK 1CU020 A2982
ROAH 230930Z 21012KT 9999 FEW020 29/26 Q1009 RMK 1CU020 A2982
ROAH 230900Z 21012KT 9999 FEW020 30/26 Q1009 RMK 1CU020 A2981
ROAH 230830Z 21012KT 9999 VCSH FEW020 30/26 Q1009 RMK 1CU020 A2981
ROAH 230800Z 21013KT 9999 FEW020 SCT/// 30/26 Q1009
ROAH 230730Z 21013KT 9999 FEW015 BKN/// 30/27 Q1009
ROAH 230700Z 21013KT 9999 FEW015 BKN/// 30/26 Q1009
ROAH 230630Z 21013KT 9999 FEW015 BKN/// 30/26 Q1009
ROAH 230600Z 21011KT 9999 FEW015 BKN/// 31/27 Q1009
ROAH 230530Z 20013KT 9999 FEW015 BKN/// 30/26 Q1009
ROAH 230500Z 21014KT 9999 FEW015 BKN/// 30/27 Q1009
ROAH 230430Z 21014KT 9999 FEW015 BKN/// 31/27 Q1009
ROAH 230400Z 21014KT 9999 FEW015 BKN/// 31/27 Q1009
ROAH 230330Z 21013KT 9999 FEW010 BKN/// 30/26 Q1009
ROAH 230300Z 21013KT 9999 FEW010 SCT015 BKN/// 31/26 Q1009
ROAH 230230Z 20012KT 9999 FEW010 SCT015 BKN/// 30/26 Q1009 RMK 1CU010 3CU015 A2982
ROAH 230200Z 21013KT 9999 FEW015 SCT020 BKN/// 30/27 Q1009 RMK 1CU015 3CU020 A2982
ROAH 230130Z 21013KT 9999 FEW015 BKN/// 30/26 Q1010
ROAH 230100Z 20013KT 9999 FEW015 BKN/// 30/26 Q1010
ROAH 230030Z 20013KT 9999 FEW015 BKN/// 30/26 Q1010
ROAH 230000Z 20012KT 9999 FEW015 SCT200 BKN/// 29/26 Q1010 RMK 2CU015 3AC200 A2982
ROAH 222330Z 20013KT 9999 FEW010 BKN/// 29/26 Q1009
ROAH 222300Z 21013KT 9999 FEW010 SCT200 BKN/// 29/26 Q1010
ROAH 222230Z 21013KT 9999 FEW010 SCT200 BKN/// 28/26 Q1009
ROAH 222200Z 21013KT 9999 FEW010 BKN/// 28/26 Q1009 RMK 1CU010 A2982
ROAH 222130Z 21013KT 9999 FEW010 BKN/// 28/25 Q1009
ROAH 222100Z 21013KT 9999 FEW010 BKN/// 28/25 Q1009 RMK 1CU010 A2981
ROAH 222030Z 21013KT 9999 FEW010 BKN/// 28/25 Q1009
ROAH 222000Z 21013KT 9999 FEW010 SCT/// 28/25 Q1009
ROAH 221930Z 21013KT 9999 FEW010 SCT/// 28/25 Q1008
ROAH 221900Z 21013KT 9999 FEW010 BKN/// 28/26 Q1008
ROAH 221830Z 21014KT 9999 FEW010 BKN/// 28/26 Q1008
ROAH 221800Z 21014KT 9999 FEW010 BKN/// 28/26 Q1009
ROAH 221730Z 21014KT 9999 FEW010 SCT035 BKN/// 28/26 Q1009
ROAH 221700Z 21013KT 9999 FEW010 SCT030 BKN/// 28/26 Q1009 RMK 1CU010 3CU030 A2980
ROAH 221630Z 21013KT 9999 FEW010 SCT015 BKN035 28/26 Q1009 RMK 1CU010 3CU015 5CU035 A2981
ROAH 221600Z 20013KT 9999 FEW010 SCT015 BKN/// 28/26 Q1009 RMK 1CU010 3CU015 A2981
ROAH 221530Z 20012KT 9999 FEW010 SCT015 BKN/// 28/26 Q1009
ROAH 221500Z 19012KT 9999 FEW010 BKN/// 28/26 Q1009
ROAH 221430Z 18013KT 9999 FEW010 BKN/// 28/26 Q1009 RMK 1CU010 A2982
ROAH 221400Z 19012KT 9999 FEW010 FEW025CB BKN/// 28/26 Q1010
ROAH 221330Z 18011KT 9999 FEW010 BKN/// 28/26 Q1010
ROAH 221300Z 19010KT 9999 FEW015 FEW025CB BKN/// 28/26 Q1010
ROAH 221230Z 18009KT 9999 FEW015 BKN/// 29/26 Q1010 RMK 1CU015 A2983
ROAH 221200Z 19009KT 9999 FEW015 BKN/// 29/26 Q1009
ROAH 221130Z 19011KT 9999 FEW015 SCT/// 29/26 Q1009 RMK 2CU015 A2981
ROAH 221100Z 18011KT 9999 FEW015 BKN/// 29/26 Q1009
ROAH 221030Z 19009KT 9999 FEW015 BKN/// 29/26 Q1008
ROAH 221000Z 19009KT 9999 FEW015 BKN/// 29/26 Q1008 RMK 2CU015 A2977
ROAH 220930Z 20009KT 9999 FEW015 BKN/// 29/26 Q1007
ROAH 220900Z 20009KT 9999 FEW015 BKN/// 29/26 Q1007
ROAH 220830Z 20012KT 9999 VCSH FEW015 SCT045 BKN/// 30/26 Q1008
ROAH 220800Z 20010KT 9999 -SHRA FEW015 SCT020 FEW025TCU BKN/// 29/26 Q1008
ROAH 220730Z 20012KT 9999 FEW013 BKN/// 30/26 Q1008
ROAH 220700Z 21011KT 9999 -SHRA FEW013 SCT020 FEW025TCU BKN/// 30/26 Q1008 RMK 1CU013 3CU020 1TCU025 A2977 TCU 15KM NE MOV NE
ROAH 220639Z 20010KT 160V230 9999 SHRA FEW013 FEW025TCU SCT030 BKN/// 29/27 Q1008 RMK 1CU013 2TCU025 3CU030 A2977 TCU 5KM W MOV NE
ROAH 220630Z 21009KT 9999 -SHRA FEW013 SCT030 BKN/// 30/27 Q1008
ROAH 220600Z 21010KT 170V240 9999 FEW013 BKN/// 30/27 Q1008 RMK 1CU013 A2977
ROAH 220530Z 20010KT 9999 FEW010 BKN/// 30/27 Q1008
ROAH 220500Z 21010KT 9999 FEW010 BKN/// 30/26 Q1008
ROAH 220430Z 21010KT 9999 FEW010 BKN/// 30/27 Q1008
ROAH 220400Z 21012KT 170V230 9999 FEW012 SCT/// 30/27 Q1008
ROAH 220330Z 21011KT 9999 BKN012 30/26 Q1008 RMK 5CU012 A2978
ROAH 220300Z 21012KT 9999 FEW012 SCT/// 31/27 Q1008
ROAH 220230Z 21013KT 9999 FEW012 SCT/// 30/27 Q1008 RMK 1CU012 A2979
ROAH 220200Z 20013KT 9999 FEW010 SCT/// 30/26 Q1008 RMK 1CU010 A2979
ROAH 220130Z 20013KT 9999 FEW010 SCT/// 30/26 Q1009
ROAH 220100Z 21014KT 9999 FEW010 SCT/// 30/27 Q1008
ROAH 220030Z 21013KT 9999 FEW010 SCT/// 30/26 Q1009
ROAH 220000Z 21012KT 9999 FEW010 SCT/// 29/26 Q1009
ROAH 212330Z 20012KT 9999 FEW010 SCT/// 29/26 Q1009
ROAH 212300Z 21010KT 9999 SCT010 BKN/// 29/26 Q1009
ROAH 212230Z 19009KT 9999 FEW010 BKN/// 29/26 Q1009
ROAH 212200Z 18010KT 9999 FEW008 SCT012 BKN/// 28/26 Q1009 RMK 2ST008 3CU012 A2979
ROAH 212130Z 18010KT 9999 FEW008 SCT012 BKN/// 28/26 Q1008
ROAH 212100Z 18010KT 9999 FEW008 BKN/// 28/26 Q1008 RMK 1ST008 A2977
ROAH 212030Z 19009KT 9999 FEW008 SCT010 BKN/// 28/26 Q1008
ROAH 212000Z 19010KT 9999 SCT009 28/26 Q1008 RMK 3CU009 A2977
ROAH 211930Z 19010KT 9999 FEW010 28/26 Q1008 RMK 1CU010 A2977
ROAH 211900Z 19012KT 9999 FEW010 28/26 Q1008 RMK 1CU010 A2977
ROAH 211830Z 18012KT 9999 FEW010 SCT/// 28/26 Q1008
ROAH 211800Z 18013KT 9999 FEW010 SCT/// 28/26 Q1008
ROAH 211730Z 17013KT 9999 FEW010 SCT/// 28/26 Q1008
ROAH 211700Z 18013KT 9999 FEW012 BKN/// 28/25 Q1008 RMK 1CU012 A2977
ROAH 211630Z 19011KT 9999 FEW012 BKN/// 28/26 Q1008
ROAH 211600Z 18011KT 9999 FEW012 BKN/// 28/26 Q1008
ROAH 211530Z 19010KT 9999 SCT012 BKN/// 28/26 Q1009
ROAH 211500Z 18011KT 9999 FEW013 BKN/// 28/26 Q1009
ROAH 211430Z 18010KT 9999 FEW013 BKN/// 28/26 Q1009
ROAH 211400Z 18010KT 9999 FEW013 BKN/// 28/26 Q1009
ROAH 211330Z 18011KT 9999 FEW013 BKN/// 28/26 Q1009
ROAH 211300Z 18013KT 9999 FEW013 BKN/// 28/26 Q1009
ROAH 211230Z 18012KT 9999 FEW013 BKN/// 28/26 Q1008
ROAH 211200Z 18011KT 9999 FEW013 BKN/// 28/26 Q1008
ROAH 211130Z 19010KT 9999 FEW013 BKN/// 28/26 Q1008
ROAH 211100Z 19010KT 9999 FEW013 BKN/// 29/26 Q1008
ROAH 211030Z 19011KT 9999 FEW013 BKN/// 29/26 Q1008
ROAH 211000Z 19009KT 9999 FEW013 BKN/// 29/26 Q1008 RMK 1CU013 A2977
ROAH 210930Z 20009KT 9999 FEW013 BKN/// 29/26 Q1008 RMK 1CU013 A2977
ROAH 210900Z 21008KT 9999 FEW013 BKN/// 29/26 Q1008
ROAH 210830Z 21009KT 9999 FEW015 BKN/// 29/26 Q1007
ROAH 210800Z 21011KT 9999 FEW015 BKN/// 30/26 Q1007 RMK 1CU015 A2976